CDT,Max TemperatureF,Mean TemperatureF,Min TemperatureF,Max Dew PointF,MeanDew PointF,Min DewpointF,Max Humidity, Mean Humidity, Min Humidity, Max Sea Level PressureIn, Mean Sea Level PressureIn, Min Sea Level PressureIn, Max VisibilityMiles, Mean VisibilityMiles, Min VisibilityMiles, Max Wind SpeedMPH, Mean Wind SpeedMPH, Max Gust SpeedMPH,PrecipitationIn, CloudCover, Events, WindDirDegrees
2012-10-1,83,76,68,79,72,62,100,90,65,29.73,29.63,29.60,10,6,1,25,14,32,1.97,5,Rain-Thunderstorm,185
2012-10-2,78,69,60,61,60,59,96,76,51,30.02,29.86,29.73,10,10,10,10,5,,0.00,4,,280
2012-10-3,78,68,57,63,60,56,96,77,54,30.16,30.10,30.03,10,10,10,7,2,,0.00,5,,43
2012-10-4,84,72,60,72,64,59,100,91,52,30.24,30.19,30.14,10,5,0,10,4,,0.00,5,Fog,24
2012-10-5,85,74,63,73,66,62,100,93,57,30.15,30.11,30.01,10,5,0,8,2,,0.00,5,Fog,23
2012-10-6,87,76,65,73,67,61,100,93,41,30.03,30.00,29.91,10,4,0,9,1,,0.00,1,Fog,347
2012-10-7,79,70,59,64,61,54,98,83,57,30.08,30.04,29.99,10,10,7,14,8,,0.00,4,,346
2012-10-8,77,65,53,57,54,50,87,70,48,30.11,30.06,30.02,10,10,10,10,7,,0.00,1,,350
2012-10-9,79,64,51,59,54,50,100,87,50,30.14,30.09,30.04,10,6,0,8,4,,0.00,3,Fog,2
2012-10-10,81,67,53,62,55,53,100,93,45,30.17,30.10,30.08,10,3,0,10,1,,0.00,0,Fog,340
2012-10-11,85,69,53,63,56,52,100,88,35,30.27,30.19,30.16,10,5,1,7,1,,0.00,0,,27
2012-10-12,85,68,51,62,55,51,100,92,44,30.29,30.20,30.18,10,3,0,7,0,,0.00,0,Fog,350
2012-10-13,87,72,59,68,62,57,97,76,44,30.27,30.20,30.15,10,10,8,9,2,,0.00,0,,91
2012-10-14,84,74,65,69,65,61,100,81,53,30.18,30.09,30.02,10,8,2,9,5,,0.00,2,,137
2012-10-15,86,74,59,71,63,53,100,89,39,30.01,29.97,29.88,10,4,0,13,1,,0.00,1,Fog,313
2012-10-16,77,61,45,52,47,37,93,64,25,30.00,29.94,29.88,10,10,10,12,4,,0.00,4,,17
2012-10-17,79,66,55,60,54,48,87,65,38,29.93,29.87,29.82,10,10,10,14,4,,0.00,1,,135
2012-10-18,72,65,59,67,64,58,100,93,83,29.88,29.83,29.79,10,6,1,16,6,21,1.38,6,Rain-Thunderstorm,10
2012-10-19,79,62,48,59,47,41,96,60,28,29.95,29.89,29.84,10,10,10,10,3,,0.00,0,,272
2012-10-20,78,62,45,50,45,41,93,63,27,30.01,29.96,29.91,10,10,10,9,2,,0.00,0,,303
2012-10-21,80,62,44,53,48,42,95,69,32,30.14,30.08,30.02,10,10,10,10,2,,0.00,0,,29
2012-10-22,81,64,47,56,51,46,96,70,32,30.18,30.12,30.08,10,10,10,8,2,,0.00,0,,63
2012-10-23,82,66,51,59,55,49,96,71,31,30.14,30.09,30.04,10,10,10,8,2,,0.00,1,,64
2012-10-24,84,68,53,62,58,52,99,76,43,30.13,30.06,30.01,10,10,5,9,2,,0.00,0,,38
2012-10-25,85,70,54,64,59,53,99,76,41,30.03,29.98,29.94,10,10,5,9,3,,0.00,1,,48
2012-10-26,84,70,57,65,60,56,98,74,45,29.99,29.92,29.87,10,10,7,12,4,,0.00,1,,360
2012-10-27,65,58,51,62,53,47,91,80,63,29.92,29.89,29.84,10,10,10,17,12,24,0.00,6,,327
2012-10-28,66,58,50,47,44,36,82,66,42,30.01,29.91,29.86,10,10,10,20,14,31,0.00,4,,321
2012-10-29,62,51,41,35,32,28,73,50,29,30.06,30.00,29.92,10,10,10,21,13,29,0.00,0,,318
2012-10-30,65,51,38,34,31,26,75,48,27,30.02,29.98,29.91,10,10,10,17,10,25,0.00,1,,284
2012-10-31,75,60,46,58,43,35,80,55,30,30.05,29.99,29.94,10,10,10,12,6,,0.00,2,,257